Latest Weather Observations for Holmes Reef

IDQ60801

Issued at 1:35 am EST Monday 21 April 2014 (issued every 30 minutes, with the page automatically refreshed every 10 minutes)

About weather observations | Map of weather stations | Latest weather observations for QLD | Other Formats
Station Details ID: 200732 Name: HOLMES REEF Lat: -16.47 Lon: 147.87 Height: 1.9 m
Data from the previous 72 hours. | See also: Recent months at Holmes Reef
Date/Time
EST
Temp
°C
App
Temp
°C
Dew
Point
Rel
Hum
%
Delta-T
°C
Wind Press
QNH
hPa
Press
MSL
hPa
Rain
since 9 am
mm
Dir
 
Spd
km/h
Gust
km/h
Spd
kts
Gust
kts
21/01:30am 27.1 - - - - E 43 48 23 26 1012.7 - -
21/01:15am 27.1 - - - - ESE 43 44 23 24 1012.9 1012.6 -
21/01:00am 26.9 - - - - ESE 44 50 24 27 1013.0 - -
21/12:30am 27.0 - - - - ESE 43 48 23 26 1013.2 - -
21/12:15am 27.1 - - - - ESE 41 - 22 - - 1013.0 -
21/12:00am 26.9 - - - - ESE 39 46 21 25 1013.6 - -
 
Date/Time
EST
Temp
°C
App
Temp
°C
Dew
Point
Rel
Hum
%
Delta-T
°C
Wind Press
QNH
hPa
Press
MSL
hPa
Rain
since 9 am
mm
Dir
 
Spd
km/h
Gust
km/h
Spd
kts
Gust
kts
20/11:30pm 26.8 - - - - E 39 44 21 24 1014.0 - -
20/11:15pm 26.8 - - - - E 37 - 20 - - 1013.9 -
20/11:00pm 26.8 - - - - ESE 41 46 22 25 1014.1 - -
20/10:30pm 27.0 - - - - ESE 41 48 22 26 1014.1 - -
20/10:15pm 26.9 - - - - E 44 - 24 - - 1013.9 -
20/10:00pm 27.0 - - - - ESE 41 46 22 25 1014.2 - -
20/09:30pm 27.2 - - - - ESE 43 48 23 26 1014.4 - -
20/09:15pm 27.0 - - - - ESE 43 - 23 - - 1014.2 -
20/09:00pm 27.0 - - - - ESE 43 48 23 26 1014.4 - -
20/08:30pm 26.9 - - - - ESE 41 48 22 26 1014.2 - -
20/08:15pm 27.0 - - - - ESE 39 - 21 - - 1013.8 -
20/08:00pm 26.9 - - - - ESE 41 46 22 25 1014.2 - -
20/07:30pm 26.9 - - - - ESE 41 46 22 25 1013.9 - -
20/07:15pm 26.8 - - - - ESE 41 - 22 - - 1013.4 -
20/07:00pm 26.9 - - - - ESE 39 44 21 24 1013.6 - -
20/06:30pm 26.9 - - - - ESE 39 43 21 23 1013.1 - -
20/06:15pm 26.9 - - - - ESE 39 - 21 - - 1012.6 -
20/06:00pm 27.0 - - - - ESE 39 44 21 24 1012.9 - -
20/05:30pm 26.9 - - - - SE 35 41 19 22 1012.7 - -
20/05:15pm 26.9 - - - - SE 35 - 19 - - 1012.3 -
20/05:00pm 27.0 - - - - ESE 35 41 19 22 1012.4 - -
20/04:30pm 26.9 - - - - ESE 33 37 18 20 1012.2 - -
20/04:15pm 26.9 - - - - ESE 33 - 18 - - 1011.8 -
20/04:00pm 26.8 - - - - ESE 33 41 18 22 1011.9 - -
20/03:30pm 26.7 - - - - SE 33 41 18 22 1011.7 - -
20/03:15pm 26.7 - - - - SE 35 - 19 - - 1011.3 -
20/03:00pm 26.7 - - - - ESE 35 41 19 22 1011.6 - -
20/02:30pm 26.8 - - - - ESE 33 37 18 20 1011.7 - -
20/02:15pm 26.8 - - - - ESE 33 - 18 - - 1011.5 -
20/02:00pm 26.7 - - - - ESE 35 39 19 21 1012.1 - -
20/01:30pm 26.8 - - - - ESE 35 41 19 22 1012.3 - -
20/01:15pm 26.8 - - - - ESE 35 - 19 - - 1012.3 -
20/01:00pm 26.7 - - - - ESE 37 41 20 22 1012.5 - -
20/12:30pm 26.7 - - - - ESE 37 41 20 22 1013.0 - -
20/12:15pm 26.7 - - - - ESE 35 - 19 - - 1012.9 -
20/12:00pm 26.8 - - - - ESE 35 39 19 21 1013.5 - -
20/11:30am 26.6 - - - - ESE 33 39 18 21 1013.7 - -
20/11:15am 26.8 - - - - ESE 35 - 19 - - 1013.5 -
20/11:00am 26.9 - - - - ESE 35 41 19 22 1014.0 - -
20/10:30am 26.7 - - - - ESE 33 43 18 23 1014.1 - -
20/10:15am 26.7 - - - - E 37 - 20 - - 1013.8 -
20/10:00am 26.8 - - - - ESE 37 43 20 23 1014.2 - -
20/09:30am 26.7 - - - - ESE 39 43 21 23 1014.3 - -
20/09:15am 26.8 - - - - ESE 39 - 21 - - 1013.9 -
20/09:00am 26.9 - - - - ESE 39 46 21 25 1014.0 - -
20/08:30am 26.8 - - - - ESE 39 44 21 24 1013.7 - -
20/08:15am 26.7 - - - - ESE 39 - 21 - - 1013.2 -
20/08:00am 26.5 - - - - ESE 39 44 21 24 1013.4 - -
20/07:30am 26.5 - - - - ESE 37 43 20 23 1013.4 - -
20/07:15am 26.5 - - - - ESE 39 - 21 - - 1013.0 -
20/07:00am 26.5 - - - - ESE 37 44 20 24 1013.2 - -
20/06:30am 26.3 - - - - ESE 37 43 20 23 1012.8 - -
20/06:15am 26.5 - - - - ESE 37 - 20 - - 1012.4 -
20/06:00am 26.4 - - - - ESE 37 41 20 22 1012.5 - -
20/05:30am 26.4 - - - - ESE 35 41 19 22 1012.4 - -
20/05:15am 26.4 - - - - ESE 33 - 18 - - 1011.9 -
20/05:00am 26.4 - - - - ESE 35 41 19 22 1012.2 - -
20/04:30am 26.3 - - - - E 33 39 18 21 1012.0 - -
20/04:15am 26.3 - - - - E 30 - 16 - - 1011.7 -
20/04:00am 26.3 - - - - E 33 39 18 21 1012.0 - -
20/03:30am 26.1 - - - - ESE 32 35 17 19 1012.1 - -
20/03:15am 26.1 - - - - ESE 32 - 17 - - 1011.9 -
20/03:00am 26.2 - - - - ESE 32 39 17 21 1012.3 - -
20/02:30am 26.4 - - - - E 32 35 17 19 1012.5 - -
20/02:15am 26.3 - - - - ESE 32 - 17 - - 1012.2 -
20/02:00am 26.2 - - - - ESE 32 37 17 20 1012.5 - -
20/01:30am 26.3 - - - - E 35 39 19 21 1012.7 - -
20/01:15am 26.3 - - - - ESE 33 - 18 - - 1012.6 -
20/01:00am 26.3 - - - - ESE 35 39 19 21 1013.1 - -
20/12:30am 26.5 - - - - E 33 37 18 20 1013.2 - -
20/12:15am 26.4 - - - - ESE 33 - 18 - - 1013.1 -
20/12:00am 26.4 - - - - ESE 35 41 19 22 1013.6 - -
 
Date/Time
EST
Temp
°C
App
Temp
°C
Dew
Point
Rel
Hum
%
Delta-T
°C
Wind Press
QNH
hPa
Press
MSL
hPa
Rain
since 9 am
mm
Dir
 
Spd
km/h
Gust
km/h
Spd
kts
Gust
kts
19/11:30pm 26.4 - - - - ESE 35 39 19 21 1013.7 - -
19/11:15pm 26.5 - - - - ESE 35 - 19 - - 1013.4 -
19/11:00pm 26.4 - - - - ESE 35 41 19 22 1013.9 - -
19/10:30pm 26.5 - - - - ESE 37 41 20 22 1014.0 - -
19/10:15pm 26.5 - - - - ESE 35 - 19 - - 1013.8 -
19/10:00pm 26.6 - - - - ESE 33 41 18 22 1014.2 - -
19/09:30pm 26.5 - - - - ESE 37 43 20 23 1014.2 - -
19/09:15pm 26.5 - - - - ESE 35 - 19 - - 1013.8 -
19/09:00pm 26.6 - - - - ESE 37 43 20 23 1014.1 - -
19/08:30pm 26.6 - - - - ESE 33 41 18 22 1014.2 - -
19/08:15pm 26.6 - - - - ESE 33 - 18 - - 1013.8 -
19/08:00pm 26.7 - - - - ESE 33 43 18 23 1014.0 - -
19/07:30pm 26.7 - - - - ESE 35 43 19 23 1013.7 - -
19/07:15pm 26.7 - - - - ESE 37 - 20 - - 1013.2 -
19/07:00pm 26.6 - - - - ESE 35 41 19 22 1013.3 - -
19/06:30pm 26.7 - - - - ESE 35 41 19 22 1013.1 - -
19/06:15pm 26.7 - - - - ESE 35 - 19 - - 1012.6 -
19/06:00pm 26.7 - - - - ESE 37 43 20 23 1012.8 - -
19/05:30pm 26.7 - - - - ESE 35 41 19 22 1012.6 - -
19/05:15pm 26.8 - - - - ESE 35 - 19 - - 1012.3 -
19/05:00pm 26.8 - - - - ESE 33 37 18 20 1012.4 - -
19/04:30pm 26.9 - - - - ESE 33 39 18 21 1012.2 - -
19/04:15pm 26.9 - - - - ESE 33 - 18 - - 1011.8 -
19/04:00pm 26.7 - - - - ESE 33 43 18 23 1012.0 - -
19/03:30pm 26.8 - - - - ESE 33 39 18 21 1011.9 - -
19/03:15pm 26.8 - - - - ESE 33 - 18 - - 1011.7 -
19/03:00pm 26.8 - - - - ESE 33 39 18 21 1012.1 - -
19/02:30pm 26.9 - - - - ESE 32 39 17 21 1012.4 - -
19/02:15pm 26.8 - - - - ESE 33 - 18 - - 1012.2 -
19/02:00pm 26.7 - - - - ESE 33 39 18 21 1012.7 - -
19/01:30pm 26.8 - - - - ESE 35 39 19 21 1013.1 - -
19/01:15pm 26.8 - - - - ESE 33 - 18 - - 1012.9 -
19/01:00pm 26.9 - - - - ESE 33 39 18 21 1013.4 - -
19/12:30pm 26.8 - - - - ESE 33 39 18 21 1013.8 - -
19/12:15pm 26.8 - - - - ESE 33 - 18 - - 1013.8 -
19/12:00pm 26.9 - - - - ESE 33 37 18 20 1014.3 - -
19/11:30am 26.9 - - - - E 33 39 18 21 1014.7 - -
19/11:15am 26.7 - - - - ESE 33 - 18 - - 1014.5 -
19/11:00am 26.8 - - - - E 35 39 19 21 1014.8 - -
19/10:30am 26.8 - - - - E 35 41 19 22 1015.0 - -
19/10:15am 26.8 - - - - E 33 - 18 - - 1014.7 -
19/10:00am 26.9 - - - - ESE 35 39 19 21 1015.2 - -
19/09:30am 26.8 - - - - ESE 33 39 18 21 1015.0 - -
19/09:15am 26.8 - - - - E 33 - 18 - - 1014.6 -
19/09:00am 26.9 - - - - ESE 35 39 19 21 1014.8 - -
19/08:30am 26.9 - - - - ESE 35 43 19 23 1014.8 - -
19/08:15am 26.9 - - - - ESE 35 - 19 - - 1014.4 -
19/08:00am 26.9 - - - - ESE 35 39 19 21 1014.8 - -
19/07:30am 26.8 - - - - E 33 39 18 21 1014.5 - -
19/07:15am 26.6 - - - - E 35 - 19 - - 1014.0 -
19/07:00am 26.7 - - - - E 35 41 19 22 1014.1 - -
19/06:30am 26.5 - - - - E 37 41 20 22 1013.7 - -
19/06:15am 26.4 - - - - E 35 - 19 - - 1013.3 -
19/06:00am 26.4 - - - - E 33 39 18 21 1013.4 - -
19/05:30am 26.4 - - - - E 35 41 19 22 1013.5 - -
19/05:15am 26.6 - - - - E 33 - 18 - - 1013.3 -
19/05:00am 26.5 - - - - E 32 37 17 20 1013.6 - -
19/04:30am 26.5 - - - - E 33 39 18 21 1013.5 - -
19/04:15am 26.6 - - - - E 33 - 18 - - 1013.2 -
19/04:00am 26.5 - - - - E 35 39 19 21 1013.5 - -
19/03:30am 26.5 - - - - E 33 37 18 20 1013.5 - -
19/03:15am 26.4 - - - - E 33 - 18 - - 1013.2 -
19/03:00am 26.6 - - - - E 35 41 19 22 1013.5 - -
19/02:30am 26.6 - - - - E 35 39 19 21 1013.6 - -
19/02:15am 26.7 - - - - E 35 - 19 - - 1013.4 -
19/02:00am 26.6 - - - - E 33 39 18 21 1013.9 - -
19/01:30am 26.6 - - - - E 33 39 18 21 1014.2 - -
19/01:15am 26.4 - - - - E 33 - 18 - - 1014.0 -
19/01:00am 26.7 - - - - E 32 39 17 21 1014.4 - -
19/12:30am 26.7 - - - - E 33 39 18 21 1014.5 - -
19/12:15am 26.8 - - - - E 35 - 19 - - 1014.3 -
19/12:00am 26.8 - - - - E 35 41 19 22 1014.7 - -
 
Date/Time
EST
Temp
°C
App
Temp
°C
Dew
Point
Rel
Hum
%
Delta-T
°C
Wind Press
QNH
hPa
Press
MSL
hPa
Rain
since 9 am
mm
Dir
 
Spd
km/h
Gust
km/h
Spd
kts
Gust
kts
18/11:30pm 26.7 - - - - E 37 43 20 23 1014.9 - -
18/11:15pm 26.8 - - - - E 37 - 20 - - 1014.7 -
18/11:00pm 26.7 - - - - E 35 43 19 23 1015.1 - -
18/10:30pm 26.9 - - - - E 33 39 18 21 1015.1 - -
18/10:15pm 26.8 - - - - E 35 - 19 - - 1014.8 -
18/10:00pm 26.9 - - - - E 33 39 18 21 1015.1 - -
18/09:30pm 26.9 - - - - E 35 39 19 21 1015.2 - -
18/09:15pm 27.0 - - - - E 37 - 20 - - 1014.9 -
18/09:00pm 26.9 - - - - ESE 33 39 18 21 1015.3 - -
18/08:30pm 27.1 - - - - ESE 35 39 19 21 1015.4 - -
18/08:15pm 26.9 - - - - ESE 33 - 18 - - 1014.9 -
18/08:00pm 26.9 - - - - ESE 35 39 19 21 1015.1 - -
18/07:30pm 27.1 - - - - ESE 33 41 18 22 1014.6 - -
18/07:15pm 27.0 - - - - E 35 - 19 - - 1014.1 -
18/07:00pm 26.9 - - - - ESE 33 37 18 20 1014.1 - -
18/06:30pm 26.9 - - - - ESE 33 37 18 20 1013.8 - -
18/06:15pm 26.9 - - - - ESE 33 - 18 - - 1013.4 -
18/05:30pm 26.9 - - - - E 33 37 18 20 1013.1 - -
18/05:15pm 27.0 - - - - ESE 32 - 17 - - 1012.7 -
18/05:00pm 27.2 - - - - ESE 32 39 17 21 1012.9 - -
18/04:30pm 27.1 - - - - ESE 32 35 17 19 1012.7 - -
18/04:15pm 27.1 - - - - ESE 32 - 17 - - 1012.3 -
18/04:00pm 27.1 - - - - ESE 32 35 17 19 1012.4 - -
18/03:30pm 27.3 - - - - ESE 33 39 18 21 1012.2 - -
18/03:15pm 27.2 - - - - ESE 33 - 18 - - 1011.8 -
18/03:00pm 27.1 - - - - ESE 32 39 17 21 1012.1 - -
18/02:30pm 27.1 - - - - E 32 37 17 20 1012.3 - -
18/02:15pm 27.1 - - - - E 33 - 18 - - 1012.1 -
18/02:00pm 27.1 - - - - E 33 37 18 20 1012.5 - -
18/01:30pm 27.0 - - - - E 35 41 19 22 1012.7 - -
18/01:15pm 27.1 - - - - E 32 - 17 - - 1012.5 -
18/01:00pm 27.3 - - - - E 32 35 17 19 1012.9 - -
18/12:30pm 27.3 - - - - E 33 39 18 21 1013.1 - -
18/12:15pm 27.1 - - - - E 35 - 19 - - 1012.9 -
18/12:00pm 27.3 - - - - ESE 33 41 18 22 1013.4 - -
18/11:30am 27.3 - - - - E 30 35 16 19 1013.7 - -
18/11:15am 27.2 - - - - E 33 - 18 - - 1013.7 -
18/11:00am 27.2 - - - - E 35 39 19 21 1014.2 - -
18/10:30am 27.4 - - - - E 37 43 20 23 1014.4 - -
18/10:15am 27.2 - - - - E 33 - 18 - - 1014.1 -
18/10:00am 27.3 - - - - E 35 39 19 21 1014.4 - -
18/09:30am 27.3 - - - - E 39 46 21 25 1014.4 - -
18/09:15am 27.2 - - - - E 41 - 22 - - 1014.0 -
18/09:00am 27.2 - - - - E 35 41 19 22 1014.3 - -
18/08:30am 27.2 - - - - E 35 41 19 22 1014.3 - -
18/08:15am 27.3 - - - - E 37 - 20 - - 1013.9 -
18/08:00am 27.2 - - - - E 37 43 20 23 1014.1 - -
18/07:30am 27.1 - - - - E 37 43 20 23 1013.9 - -
18/07:15am 27.1 - - - - E 35 - 19 - - 1013.5 -
18/07:00am 26.9 - - - - E 35 41 19 22 1013.7 - -
18/06:30am 26.8 - - - - E 39 44 21 24 1013.2 - -
18/06:15am 26.9 - - - - E 35 - 19 - - 1012.7 -
18/06:00am 26.8 - - - - E 35 44 19 24 1013.0 - -
18/05:30am 26.9 - - - - E 35 43 19 23 1012.7 - -
18/05:15am 26.9 - - - - E 37 - 20 - - 1012.3 -
18/05:00am 26.7 - - - - E 35 41 19 22 1012.5 - -
18/04:30am 26.9 - - - - E 37 41 20 22 1012.2 - -
18/04:15am 26.7 - - - - E 37 - 20 - - 1011.9 -
18/04:00am 26.9 - - - - E 37 43 20 23 1012.2 - -
18/03:30am 27.0 - - - - E 37 43 20 23 1012.2 - -
18/03:15am 27.0 - - - - E 35 - 19 - - 1012.1 -
18/03:00am 26.9 - - - - E 35 41 19 22 1012.4 - -
18/02:30am 26.8 - - - - E 35 41 19 22 1012.6 - -
18/02:15am 27.0 - - - - E 37 - 20 - - 1012.3 -
18/02:00am 27.0 - - - - E 37 41 20 22 1012.9 - -

Other Formats:

Comma delimited format used in spreadsheet applications
http://www.bom.gov.au/fwo/IDQ60801/IDQ60801.94289.axf

JavaScript Object Notation format (JSON) in row-major order
http://www.bom.gov.au/fwo/IDQ60801/IDQ60801.94289.json